This is the latest recevied weather packets stored in our database for station/object KC8QDR-1. If no packets are shown the sender has not sent any weather packets the latest 10 day(s).
| Time | Temp. | Humidity | Pressure | Rain* | Wind** | Luminosity | Snow |
|---|---|---|---|---|---|---|---|
| 1777545525 | 5.56° C | 95% | 1016.6 hPa | 0 mm | 0.89 m/s, 12° | - | - |
| 1777544924 | 5.56° C | 96% | 1016.6 hPa | 0 mm | 0.89 m/s, 323° | - | - |
| 1777544324 | 6.11° C | 96% | 1016.4 hPa | 0 mm | 0 m/s | - | - |
| 1777543725 | 5.56° C | 96% | 1016.2 hPa | 0 mm | 0.45 m/s, 303° | - | - |
| 1777542524 | 6.11° C | 95% | 1016.1 hPa | 0 mm | 0 m/s | - | - |
| 1777541925 | 6.11° C | 96% | 1016 hPa | 0.51 mm | 1.79 m/s, 338° | - | - |
| 1777541324 | 6.11° C | 96% | 1015.8 hPa | 0.51 mm | 1.79 m/s, 357° | - | - |
| 1777540725 | 6.11° C | 96% | 1015.9 hPa | 0.51 mm | 0 m/s | - | - |
| 1777540124 | 6.67° C | 96% | 1015.8 hPa | 0.51 mm | 2.68 m/s, 333° | - | - |
| 1777539524 | 6.11° C | 96% | 1015.5 hPa | 0.25 mm | 2.68 m/s, 359° | - | - |
| 1777538924 | 6.67° C | 96% | 1015.5 hPa | 0.25 mm | 1.34 m/s, 18° | - | - |
| 1777538325 | 6.67° C | 95% | 1015.5 hPa | 0 mm | 1.79 m/s, 307° | - | - |
| 1777537725 | 7.22° C | 95% | 1015.3 hPa | 0 mm | 2.24 m/s, 352° | - | - |
| 1777537125 | 7.22° C | 96% | 1015.1 hPa | 0 mm | 1.34 m/s, 309° | - | - |
| 1777536525 | 7.22° C | 95% | 1015.1 hPa | 0 mm | 2.24 m/s, 355° | - | - |
| 1777535925 | 7.78° C | 96% | 1015 hPa | 0 mm | 0.45 m/s, 0° | - | - |
| 1777535324 | 7.78° C | 96% | 1014.9 hPa | 0 mm | 2.68 m/s, 293° | - | - |
| 1777534725 | 7.78° C | 96% | 1014.9 hPa | 0 mm | 1.79 m/s, 348° | - | - |
| 1777534127 | 7.78° C | 96% | 1014.8 hPa | 0 mm | 0.89 m/s, 22° | - | - |
| 1777533673 | 8.33° C | 96% | 1014.7 hPa | 0 mm | 0 m/s | - | - |
| 1777533525 | 8.33° C | 96% | 1014.7 hPa | 0 mm | 0 m/s | - | - |
| 1777532926 | 8.33° C | 96% | 1014.8 hPa | 0 mm | 0.45 m/s, 335° | - | - |
| 1777532327 | 8.33° C | 96% | 1014.7 hPa | 0 mm | 0 m/s | - | - |
| 1777531725 | 8.33° C | 96% | 1014.6 hPa | 0 mm | 0 m/s | - | - |
| 1777531126 | 8.33° C | 96% | 1014.6 hPa | 0 mm | 0 m/s | - | - |
* Rain latest hour (hover to see other rain measurements)
** Current wind speed in m/s (hover to see current wind gust speed)